createdAt,value
2018-05-10T00:00:19.826Z,986.17
2018-05-10T00:01:19.859Z,986.20
2018-05-10T00:02:19.898Z,986.12
2018-05-10T00:03:19.928Z,986.11
2018-05-10T00:04:19.958Z,986.14
2018-05-10T00:05:19.995Z,986.10
2018-05-10T00:06:20.025Z,986.13
2018-05-10T00:07:20.060Z,986.14
2018-05-10T00:08:20.092Z,986.09
2018-05-10T00:09:20.126Z,986.05
2018-05-10T00:10:20.159Z,986.11
2018-05-10T00:11:20.193Z,986.09
2018-05-10T00:12:20.227Z,986.07
2018-05-10T00:13:20.259Z,986.08
2018-05-10T00:14:20.294Z,986.07
2018-05-10T00:15:20.326Z,986.10
2018-05-10T00:16:20.361Z,986.11
2018-05-10T00:17:20.393Z,986.14
2018-05-10T00:18:20.427Z,986.15
2018-05-10T00:19:20.461Z,986.12
2018-05-10T00:20:20.497Z,986.12
2018-05-10T00:21:20.526Z,986.14
2018-05-10T00:22:20.562Z,986.18
2018-05-10T00:23:20.594Z,986.17
2018-05-10T00:24:20.632Z,986.14
2018-05-10T00:25:20.659Z,986.12
2018-05-10T00:26:20.693Z,986.13
2018-05-10T00:27:20.727Z,986.09
2018-05-10T00:28:20.761Z,986.08
2018-05-10T00:29:20.794Z,986.08
2018-05-10T00:30:20.827Z,986.04
2018-05-10T00:31:20.861Z,986.04
2018-05-10T00:32:20.893Z,986.03
2018-05-10T00:33:20.926Z,986.06
2018-05-10T00:34:20.960Z,986.03
2018-05-10T00:35:21.002Z,986.03
2018-05-10T00:36:21.028Z,986.00
2018-05-10T00:37:21.060Z,986.03
2018-05-10T00:38:21.091Z,986.04
2018-05-10T00:39:21.127Z,986.06
2018-05-10T00:40:21.161Z,986.04
2018-05-10T00:41:21.192Z,986.02
2018-05-10T00:42:21.227Z,986.04
2018-05-10T00:43:21.260Z,986.06
2018-05-10T00:44:21.294Z,986.02
2018-05-10T00:45:21.327Z,986.06
2018-05-10T00:46:21.363Z,986.04
2018-05-10T00:47:21.399Z,986.07
2018-05-10T00:48:21.431Z,986.04
2018-05-10T00:49:21.459Z,986.05
2018-05-10T00:50:21.493Z,986.05
2018-05-10T00:51:21.526Z,986.03
2018-05-10T00:52:21.561Z,986.02
2018-05-10T00:53:21.593Z,986.01
2018-05-10T00:54:21.625Z,985.97
2018-05-10T00:55:21.659Z,986.02
2018-05-10T00:56:21.693Z,986.01
2018-05-10T00:57:21.725Z,986.00
2018-05-10T00:58:21.758Z,986.00
2018-05-10T00:59:21.792Z,986.03
2018-05-10T01:00:21.827Z,986.01
2018-05-10T01:01:21.857Z,986.02
2018-05-10T01:02:21.891Z,986.05
2018-05-10T01:03:21.925Z,986.02
2018-05-10T01:04:21.958Z,986.01
2018-05-10T01:05:21.990Z,986.02
2018-05-10T01:06:22.023Z,986.02
2018-05-10T01:07:22.057Z,986.04
2018-05-10T01:08:22.090Z,986.04
2018-05-10T01:09:22.125Z,986.03
2018-05-10T01:10:22.156Z,986.07
2018-05-10T01:11:22.191Z,986.05
2018-05-10T01:12:22.222Z,986.02
2018-05-10T01:13:22.256Z,986.05
2018-05-10T01:14:22.288Z,986.03
2018-05-10T01:15:22.321Z,986.03
2018-05-10T01:16:22.354Z,986.07
2018-05-10T01:17:22.386Z,986.00
2018-05-10T01:18:22.420Z,986.06
2018-05-10T01:19:22.452Z,986.03
2018-05-10T01:20:22.487Z,986.03
2018-05-10T01:21:22.518Z,986.04
2018-05-10T01:22:22.551Z,986.04
2018-05-10T01:23:22.585Z,986.05
2018-05-10T01:24:22.619Z,986.04
2018-05-10T01:25:22.650Z,986.03
2018-05-10T01:26:22.683Z,986.07
2018-05-10T01:27:22.717Z,986.06
2018-05-10T01:28:22.749Z,986.06
2018-05-10T01:29:22.786Z,986.06
2018-05-10T01:30:22.814Z,986.01
2018-05-10T01:31:22.849Z,986.12
2018-05-10T01:32:22.882Z,986.05
2018-05-10T01:33:22.913Z,986.06
2018-05-10T01:34:22.946Z,986.03
2018-05-10T01:35:22.981Z,986.07
2018-05-10T01:36:23.014Z,986.12
2018-05-10T01:37:23.051Z,986.09
2018-05-10T01:38:23.079Z,986.09
2018-05-10T01:39:23.112Z,986.07
2018-05-10T01:40:23.144Z,986.12
2018-05-10T01:41:23.177Z,986.09
2018-05-10T01:42:23.210Z,986.08
2018-05-10T01:43:23.243Z,986.09
2018-05-10T01:44:23.277Z,986.09
2018-05-10T01:45:23.309Z,986.06
2018-05-10T01:46:23.342Z,986.04
2018-05-10T01:47:23.373Z,986.11
2018-05-10T01:48:23.409Z,986.08
2018-05-10T01:49:23.439Z,986.11
2018-05-10T01:50:23.476Z,986.16
2018-05-10T01:51:23.506Z,986.14
2018-05-10T01:52:23.540Z,986.10
2018-05-10T01:53:23.572Z,986.10
2018-05-10T01:54:23.607Z,986.09
2018-05-10T01:55:23.638Z,986.14
2018-05-10T01:56:23.671Z,986.15
2018-05-10T01:57:23.702Z,986.14
2018-05-10T01:58:23.737Z,986.16
2018-05-10T01:59:23.770Z,986.16
2018-05-10T02:00:23.802Z,986.18
2018-05-10T02:01:23.834Z,986.21
2018-05-10T02:02:23.868Z,986.23
2018-05-10T02:03:23.905Z,986.21
2018-05-10T02:04:23.935Z,986.27
2018-05-10T02:05:23.967Z,986.21
2018-05-10T02:06:24.000Z,986.26
2018-05-10T02:07:24.032Z,986.27
2018-05-10T02:08:24.072Z,986.25
2018-05-10T02:09:24.102Z,986.29
2018-05-10T02:10:24.131Z,986.36
2018-05-10T02:11:24.164Z,986.36
2018-05-10T02:12:24.197Z,986.37
2018-05-10T02:13:24.229Z,986.36
2018-05-10T02:14:24.263Z,986.37
2018-05-10T02:15:24.296Z,986.39
2018-05-10T02:16:24.333Z,986.42
2018-05-10T02:17:24.361Z,986.41
2018-05-10T02:18:24.394Z,986.40
2018-05-10T02:19:24.427Z,986.38
2018-05-10T02:20:24.460Z,986.41
2018-05-10T02:21:24.492Z,986.48
2018-05-10T02:22:24.524Z,986.44
2018-05-10T02:23:24.558Z,986.47
2018-05-10T02:24:24.592Z,986.47
2018-05-10T02:25:24.624Z,986.53
2018-05-10T02:26:24.656Z,986.51
2018-05-10T02:27:24.689Z,986.49
2018-05-10T02:28:24.722Z,986.48
2018-05-10T02:29:24.753Z,986.51
2018-05-10T02:30:24.787Z,986.49
2018-05-10T02:31:24.821Z,986.49
2018-05-10T02:32:24.856Z,986.44
2018-05-10T02:33:24.895Z,986.49
2018-05-10T02:34:24.919Z,986.47
2018-05-10T02:35:24.950Z,986.45
2018-05-10T02:36:25.090Z,986.48
2018-05-10T02:37:25.020Z,986.46
2018-05-10T02:38:25.049Z,986.48
2018-05-10T02:39:25.081Z,986.48
2018-05-10T02:40:25.115Z,986.52
2018-05-10T02:41:25.149Z,986.50
2018-05-10T02:42:25.179Z,986.55
2018-05-10T02:43:25.214Z,986.53
2018-05-10T02:44:25.245Z,986.58
2018-05-10T02:45:25.276Z,986.53
2018-05-10T02:46:25.311Z,986.57
2018-05-10T02:47:25.344Z,986.56
2018-05-10T02:48:25.376Z,986.58
2018-05-10T02:49:25.408Z,986.58
2018-05-10T02:50:25.442Z,986.64
2018-05-10T02:51:25.473Z,986.62
2018-05-10T02:52:25.508Z,986.66
2018-05-10T02:53:25.544Z,986.70
2018-05-10T02:54:25.572Z,986.67
2018-05-10T02:55:25.606Z,986.70
2018-05-10T02:56:25.639Z,986.69
2018-05-10T02:57:25.669Z,986.68
2018-05-10T02:58:25.703Z,986.70
2018-05-10T02:59:25.737Z,986.71
2018-05-10T03:00:25.768Z,986.72
2018-05-10T03:01:25.802Z,986.71
2018-05-10T03:02:25.834Z,986.73
2018-05-10T03:03:25.867Z,986.77
2018-05-10T03:04:25.903Z,986.75
2018-05-10T03:05:25.933Z,986.77
2018-05-10T03:06:25.966Z,986.84
2018-05-10T03:07:25.998Z,986.84
2018-05-10T03:08:26.036Z,986.84
2018-05-10T03:09:26.070Z,986.81
2018-05-10T03:10:26.098Z,986.84
2018-05-10T03:11:26.129Z,986.90
2018-05-10T03:12:26.166Z,986.83
2018-05-10T03:13:26.196Z,986.88
2018-05-10T03:14:26.229Z,986.94
2018-05-10T03:15:26.261Z,986.96
2018-05-10T03:16:26.295Z,986.90
2018-05-10T03:17:26.331Z,986.91
2018-05-10T03:18:26.363Z,986.95
2018-05-10T03:19:26.393Z,986.94
2018-05-10T03:20:26.425Z,986.92
2018-05-10T03:21:26.458Z,986.91
2018-05-10T03:22:26.491Z,986.93
2018-05-10T03:23:26.524Z,986.90
2018-05-10T03:24:26.558Z,986.89
2018-05-10T03:25:26.591Z,986.92
2018-05-10T03:26:26.623Z,986.89
2018-05-10T03:27:26.657Z,986.90
2018-05-10T03:28:26.695Z,986.92
2018-05-10T03:29:26.722Z,986.91
2018-05-10T03:30:26.759Z,986.93
2018-05-10T03:31:26.788Z,986.90
2018-05-10T03:32:26.823Z,986.91
2018-05-10T03:33:26.855Z,986.91
2018-05-10T03:34:26.887Z,986.90
2018-05-10T03:35:26.922Z,986.89
2018-05-10T03:36:26.955Z,986.91
2018-05-10T03:37:26.988Z,986.91
2018-05-10T03:38:27.021Z,986.92
2018-05-10T03:39:27.053Z,986.93
2018-05-10T03:40:27.184Z,986.91
2018-05-10T03:41:27.119Z,986.96
2018-05-10T03:42:27.155Z,986.93
2018-05-10T03:43:27.186Z,986.94
2018-05-10T03:44:27.219Z,986.99
2018-05-10T03:45:27.255Z,987.00
2018-05-10T03:46:27.308Z,987.01
2018-05-10T03:47:27.320Z,986.98
2018-05-10T03:48:27.352Z,987.01
2018-05-10T03:49:27.388Z,987.03
2018-05-10T03:50:27.424Z,987.05
2018-05-10T03:51:27.455Z,986.97
2018-05-10T03:52:27.485Z,987.00
2018-05-10T03:53:27.518Z,987.02
2018-05-10T03:54:27.551Z,986.98
2018-05-10T03:55:27.586Z,986.98
2018-05-10T03:56:27.624Z,987.00
2018-05-10T03:57:27.651Z,987.03
2018-05-10T03:58:27.684Z,987.04
2018-05-10T03:59:27.718Z,987.02
2018-05-10T04:00:27.751Z,987.06
2018-05-10T04:01:27.784Z,987.08
2018-05-10T04:02:27.818Z,987.05
2018-05-10T04:03:27.853Z,987.10
2018-05-10T04:04:27.884Z,987.12
2018-05-10T04:05:27.918Z,987.12
2018-05-10T04:06:27.950Z,987.17
2018-05-10T04:07:27.985Z,987.19
2018-05-10T04:08:28.019Z,987.18
2018-05-10T04:09:28.051Z,987.18
2018-05-10T04:10:28.083Z,987.18
2018-05-10T04:11:28.118Z,987.17
2018-05-10T04:12:28.156Z,987.20
2018-05-10T04:13:28.184Z,987.20
2018-05-10T04:14:28.218Z,987.17
2018-05-10T04:15:28.257Z,987.17
2018-05-10T04:16:28.285Z,987.15
2018-05-10T04:17:28.323Z,987.21
2018-05-10T04:18:28.352Z,987.20
2018-05-10T04:19:28.387Z,987.21
2018-05-10T04:20:28.421Z,987.24
2018-05-10T04:21:28.458Z,987.23
2018-05-10T04:22:28.488Z,987.28
2018-05-10T04:23:28.522Z,987.29
2018-05-10T04:24:28.554Z,987.29
2018-05-10T04:25:28.588Z,987.27
2018-05-10T04:26:28.622Z,987.34
2018-05-10T04:27:28.656Z,987.34
2018-05-10T04:28:28.689Z,987.28
2018-05-10T04:29:28.721Z,987.31
2018-05-10T04:30:28.756Z,987.32
2018-05-10T04:31:28.791Z,987.30
2018-05-10T04:32:28.824Z,987.31
2018-05-10T04:33:28.858Z,987.35
2018-05-10T04:34:28.891Z,987.35
2018-05-10T04:35:28.926Z,987.35
2018-05-10T04:36:28.958Z,987.38
2018-05-10T04:37:28.994Z,987.40
2018-05-10T04:38:29.027Z,987.35
2018-05-10T04:39:29.063Z,987.39
2018-05-10T04:40:29.094Z,987.33
2018-05-10T04:41:29.127Z,987.30
2018-05-10T04:42:29.162Z,987.33
2018-05-10T04:43:29.197Z,987.39
2018-05-10T04:44:29.231Z,987.38
2018-05-10T04:45:29.263Z,987.35
2018-05-10T04:46:29.298Z,987.38
2018-05-10T04:47:29.332Z,987.41
2018-05-10T04:48:29.365Z,987.45
2018-05-10T04:49:29.400Z,987.50
2018-05-10T04:50:29.439Z,987.48
2018-05-10T04:51:29.468Z,987.54
2018-05-10T04:52:29.503Z,987.51
2018-05-10T04:53:29.537Z,987.55
2018-05-10T04:54:29.569Z,987.54
2018-05-10T04:55:29.605Z,987.49
2018-05-10T04:56:29.638Z,987.48
2018-05-10T04:57:29.674Z,987.49
2018-05-10T04:58:29.706Z,987.51
2018-05-10T04:59:29.742Z,987.47
2018-05-10T05:00:29.775Z,987.48
2018-05-10T05:01:29.808Z,987.51
2018-05-10T05:02:29.844Z,987.55
2018-05-10T05:03:29.966Z,987.50
2018-05-10T05:04:29.911Z,987.54
2018-05-10T05:05:29.945Z,987.61
2018-05-10T05:06:29.981Z,987.61
2018-05-10T05:07:30.016Z,987.67
2018-05-10T05:08:30.048Z,987.72
2018-05-10T05:09:30.085Z,987.72
2018-05-10T05:10:30.116Z,987.71
2018-05-10T05:11:30.151Z,987.75
2018-05-10T05:12:30.186Z,987.72
2018-05-10T05:13:30.218Z,987.63
2018-05-10T05:14:30.255Z,987.63
2018-05-10T05:15:30.291Z,987.55
2018-05-10T05:16:30.322Z,987.60
2018-05-10T05:17:30.357Z,987.63
2018-05-10T05:18:30.392Z,987.65
2018-05-10T05:19:30.428Z,987.68
2018-05-10T05:20:30.460Z,987.68
2018-05-10T05:21:30.500Z,987.71
2018-05-10T05:22:30.530Z,987.74
2018-05-10T05:23:30.567Z,987.72
2018-05-10T05:24:30.595Z,987.76
2018-05-10T05:25:30.630Z,987.76
2018-05-10T05:26:30.665Z,987.79
2018-05-10T05:27:30.698Z,987.80
2018-05-10T05:28:30.733Z,987.76
2018-05-10T05:29:30.767Z,987.80
2018-05-10T05:30:30.803Z,987.82
2018-05-10T05:31:30.837Z,987.82
2018-05-10T05:32:30.870Z,987.87
2018-05-10T05:33:30.904Z,987.89
2018-05-10T05:34:30.940Z,987.90
2018-05-10T05:35:30.990Z,987.93
2018-05-10T05:36:31.056Z,988.01
2018-05-10T05:37:31.041Z,987.98
2018-05-10T05:38:31.075Z,987.97
2018-05-10T05:39:31.132Z,987.99
2018-05-10T05:40:31.149Z,988.01
2018-05-10T05:41:31.179Z,988.04
2018-05-10T05:42:31.214Z,988.03
2018-05-10T05:43:31.332Z,988.08
2018-05-10T05:44:31.286Z,988.08
2018-05-10T05:45:31.320Z,988.09
2018-05-10T05:46:31.352Z,988.11
2018-05-10T05:47:31.386Z,988.16
2018-05-10T05:48:31.421Z,988.12
2018-05-10T05:49:31.456Z,988.18
2018-05-10T05:50:31.490Z,988.20
2018-05-10T05:51:31.525Z,988.19
2018-05-10T05:52:31.561Z,988.20
2018-05-10T05:53:31.594Z,988.25
2018-05-10T05:54:31.628Z,988.30
2018-05-10T05:55:31.663Z,988.29
2018-05-10T05:56:31.697Z,988.34
2018-05-10T05:57:31.731Z,988.31
2018-05-10T05:58:31.766Z,988.36
2018-05-10T05:59:31.803Z,988.40
2018-05-10T06:00:31.837Z,988.43
2018-05-10T06:01:31.870Z,988.49
2018-05-10T06:02:31.909Z,988.51
2018-05-10T06:03:31.940Z,988.51
2018-05-10T06:04:31.974Z,988.54
2018-05-10T06:05:32.013Z,988.52
2018-05-10T06:06:32.044Z,988.57
2018-05-10T06:07:32.082Z,988.59
2018-05-10T06:08:32.119Z,988.59
2018-05-10T06:09:32.147Z,988.57
2018-05-10T06:10:32.183Z,988.61
2018-05-10T06:11:32.218Z,988.66
2018-05-10T06:12:32.251Z,988.66
2018-05-10T06:13:32.285Z,988.66
2018-05-10T06:14:32.320Z,988.68
2018-05-10T06:15:32.387Z,988.72
2018-05-10T06:16:32.391Z,988.71
2018-05-10T06:17:32.424Z,988.65
2018-05-10T06:18:32.459Z,988.72
2018-05-10T06:19:32.498Z,988.70
2018-05-10T06:20:32.529Z,988.73
2018-05-10T06:21:32.563Z,988.80
2018-05-10T06:22:32.599Z,988.86
2018-05-10T06:23:32.635Z,988.87
2018-05-10T06:24:32.668Z,988.94
2018-05-10T06:25:32.702Z,988.98
2018-05-10T06:26:32.740Z,989.06
2018-05-10T06:27:32.771Z,989.17
2018-05-10T06:28:32.809Z,989.23
2018-05-10T06:29:32.843Z,989.29
2018-05-10T06:30:32.874Z,989.36
2018-05-10T06:31:32.909Z,989.32
2018-05-10T06:32:32.945Z,989.38
2018-05-10T06:33:32.979Z,989.38
2018-05-10T06:34:33.016Z,989.41
2018-05-10T06:35:33.048Z,989.43
2018-05-10T06:36:33.082Z,989.43
2018-05-10T06:37:33.117Z,989.49
2018-05-10T06:38:33.152Z,989.58
2018-05-10T06:39:33.184Z,989.57
2018-05-10T06:40:33.222Z,989.70
2018-05-10T06:41:33.281Z,989.78
2018-05-10T06:42:33.288Z,989.82
2018-05-10T06:43:33.324Z,989.88
2018-05-10T06:44:33.357Z,989.90
2018-05-10T06:45:33.392Z,989.88
2018-05-10T06:46:33.426Z,989.93
2018-05-10T06:47:33.461Z,989.92
2018-05-10T06:48:33.495Z,989.93
2018-05-10T06:49:33.528Z,989.92
2018-05-10T06:50:33.565Z,989.90
2018-05-10T06:51:33.599Z,989.92
2018-05-10T06:52:33.633Z,989.91
2018-05-10T06:53:33.665Z,989.89
2018-05-10T06:54:33.739Z,989.92
2018-05-10T06:55:33.735Z,989.91
2018-05-10T06:56:33.772Z,989.93
2018-05-10T06:57:33.804Z,989.93
2018-05-10T06:58:33.837Z,989.93
2018-05-10T06:59:33.876Z,990.01
2018-05-10T07:00:33.908Z,989.97
2018-05-10T07:01:33.942Z,990.02
2018-05-10T07:02:33.975Z,990.00
2018-05-10T07:03:34.010Z,990.02
2018-05-10T07:04:34.045Z,989.94
2018-05-10T07:05:34.078Z,989.94
2018-05-10T07:06:34.113Z,989.84
2018-05-10T07:07:34.146Z,989.87
2018-05-10T07:08:34.182Z,989.89
2018-05-10T07:09:34.370Z,989.92
2018-05-10T07:10:34.255Z,990.07
2018-05-10T07:11:34.284Z,990.18
2018-05-10T07:12:34.318Z,990.15
2018-05-10T07:13:34.353Z,990.19
2018-05-10T07:14:34.385Z,990.19
2018-05-10T07:15:34.421Z,990.22
2018-05-10T07:16:34.456Z,990.18
2018-05-10T07:17:34.489Z,990.19
2018-05-10T07:18:34.524Z,990.24
2018-05-10T07:19:34.557Z,990.24
2018-05-10T07:20:34.593Z,990.28
2018-05-10T07:21:34.626Z,990.29
2018-05-10T07:22:34.659Z,990.28
2018-05-10T07:23:34.693Z,990.30
2018-05-10T07:24:34.728Z,990.23
2018-05-10T07:25:34.762Z,990.28
2018-05-10T07:26:34.796Z,990.28
2018-05-10T07:27:34.832Z,990.24
2018-05-10T07:28:34.864Z,990.29
2018-05-10T07:29:34.897Z,990.27
2018-05-10T07:30:34.934Z,990.29
2018-05-10T07:31:34.966Z,990.29
2018-05-10T07:32:35.005Z,990.30
2018-05-10T07:33:35.035Z,990.31
2018-05-10T07:34:35.069Z,990.26
2018-05-10T07:35:35.103Z,990.24
2018-05-10T07:36:35.141Z,990.29
2018-05-10T07:37:35.171Z,990.30
2018-05-10T07:38:35.206Z,990.32
2018-05-10T07:39:35.239Z,990.31
2018-05-10T07:40:35.276Z,990.32
2018-05-10T07:41:35.331Z,990.30
2018-05-10T07:42:35.342Z,990.30
2018-05-10T07:43:35.375Z,990.26
2018-05-10T07:44:35.411Z,990.26
2018-05-10T07:45:35.444Z,990.28
2018-05-10T07:46:35.477Z,990.32
2018-05-10T07:47:35.512Z,990.32
2018-05-10T07:48:35.552Z,990.35
2018-05-10T07:49:35.580Z,990.39
2018-05-10T07:50:35.617Z,990.40
2018-05-10T07:51:35.648Z,990.42
2018-05-10T07:52:35.682Z,990.42
2018-05-10T07:53:35.716Z,990.44
2018-05-10T07:54:35.750Z,990.44
2018-05-10T07:55:35.785Z,990.46
2018-05-10T07:56:35.820Z,990.43
2018-05-10T07:57:35.854Z,990.41
2018-05-10T07:58:35.888Z,990.45
2018-05-10T07:59:35.922Z,990.42
2018-05-10T08:00:35.957Z,990.42
2018-05-10T08:01:35.988Z,990.40
2018-05-10T08:02:36.026Z,990.41
2018-05-10T08:03:36.058Z,990.42
2018-05-10T08:04:36.092Z,990.44
2018-05-10T08:05:36.124Z,990.42
2018-05-10T08:06:36.159Z,990.48
2018-05-10T08:07:36.194Z,990.51
2018-05-10T08:08:36.228Z,990.54
2018-05-10T08:09:36.263Z,990.56
2018-05-10T08:10:36.296Z,990.52
2018-05-10T08:11:36.330Z,990.60
2018-05-10T08:12:36.365Z,990.60
2018-05-10T08:13:36.403Z,990.57
2018-05-10T08:14:36.431Z,990.61
2018-05-10T08:15:36.466Z,990.60
2018-05-10T08:16:36.502Z,990.63
2018-05-10T08:17:36.535Z,990.64
2018-05-10T08:18:36.568Z,990.63
2018-05-10T08:19:36.603Z,990.68
2018-05-10T08:20:36.642Z,990.74
2018-05-10T08:21:36.670Z,990.72
2018-05-10T08:22:36.705Z,990.72
2018-05-10T08:23:36.741Z,990.77
2018-05-10T08:24:36.774Z,990.76
2018-05-10T08:25:36.811Z,990.75
2018-05-10T08:26:36.845Z,990.79
2018-05-10T08:27:36.876Z,990.79
2018-05-10T08:28:36.911Z,990.74
2018-05-10T08:29:36.944Z,990.74
2018-05-10T08:30:36.979Z,990.74
2018-05-10T08:31:37.015Z,990.75
2018-05-10T08:32:37.048Z,990.75
2018-05-10T08:33:37.083Z,990.72
2018-05-10T08:34:37.116Z,990.73
2018-05-10T08:35:37.151Z,990.74
2018-05-10T08:36:37.215Z,990.78
2018-05-10T08:37:37.223Z,990.76
2018-05-10T08:38:37.255Z,990.83
2018-05-10T08:39:37.289Z,990.85
2018-05-10T08:40:37.324Z,990.84
2018-05-10T08:41:37.357Z,990.83
2018-05-10T08:42:37.395Z,990.83
2018-05-10T08:43:37.427Z,990.79
2018-05-10T08:44:37.461Z,990.81
2018-05-10T08:45:37.494Z,990.81
2018-05-10T08:46:37.528Z,990.81
2018-05-10T08:47:37.566Z,990.83
2018-05-10T08:48:37.599Z,990.83
2018-05-10T08:49:37.632Z,990.82
2018-05-10T08:50:37.667Z,990.87
2018-05-10T08:51:37.702Z,990.87
2018-05-10T08:52:37.736Z,990.82
2018-05-10T08:53:37.771Z,990.80
2018-05-10T08:54:37.804Z,990.80
2018-05-10T08:55:37.839Z,990.80
2018-05-10T08:56:37.875Z,990.83
2018-05-10T08:57:37.912Z,990.85
2018-05-10T08:58:37.943Z,990.85
2018-05-10T08:59:37.979Z,990.90
2018-05-10T09:00:38.014Z,990.92
2018-05-10T09:01:38.046Z,990.90
2018-05-10T09:02:38.081Z,990.91
2018-05-10T09:03:38.116Z,990.96
2018-05-10T09:04:38.151Z,990.92
2018-05-10T09:05:38.190Z,990.97
2018-05-10T09:06:38.220Z,991.01
2018-05-10T09:07:38.255Z,991.01
2018-05-10T09:08:38.291Z,991.06
2018-05-10T09:09:38.323Z,991.09
2018-05-10T09:10:38.361Z,991.10
2018-05-10T09:11:38.394Z,991.12
2018-05-10T09:12:38.431Z,991.11
2018-05-10T09:13:38.463Z,991.12
2018-05-10T09:14:38.500Z,991.14
2018-05-10T09:15:38.535Z,991.15
2018-05-10T09:16:38.570Z,991.18
2018-05-10T09:17:38.603Z,991.17
2018-05-10T09:18:38.638Z,991.18
2018-05-10T09:19:38.673Z,991.13
2018-05-10T09:20:38.710Z,991.14
2018-05-10T09:21:38.743Z,991.19
2018-05-10T09:22:38.779Z,991.15
2018-05-10T09:23:38.815Z,991.19
2018-05-10T09:24:38.849Z,991.19
2018-05-10T09:25:38.888Z,991.19
2018-05-10T09:26:38.920Z,991.18
2018-05-10T09:27:38.956Z,991.24
2018-05-10T09:28:38.991Z,991.19
2018-05-10T09:29:39.032Z,991.24
2018-05-10T09:30:39.062Z,991.27
2018-05-10T09:31:39.180Z,991.25
2018-05-10T09:32:39.133Z,991.30
2018-05-10T09:33:39.168Z,991.30
2018-05-10T09:34:39.204Z,991.30
2018-05-10T09:35:39.238Z,991.30
2018-05-10T09:36:39.276Z,991.26
2018-05-10T09:37:39.310Z,991.29
2018-05-10T09:38:39.346Z,991.29
2018-05-10T09:39:39.383Z,991.28
2018-05-10T09:40:39.419Z,991.25
2018-05-10T09:41:39.454Z,991.26
2018-05-10T09:42:39.490Z,991.27
2018-05-10T09:43:39.528Z,991.29
2018-05-10T09:44:39.564Z,991.32
2018-05-10T09:45:39.603Z,991.34
2018-05-10T09:46:39.635Z,991.36
2018-05-10T09:47:39.672Z,991.37
2018-05-10T09:48:39.708Z,991.38
2018-05-10T09:49:39.743Z,991.38
2018-05-10T09:50:39.780Z,991.37
2018-05-10T09:51:39.816Z,991.39
2018-05-10T09:52:39.928Z,991.43
2018-05-10T09:53:39.890Z,991.41
2018-05-10T09:54:39.925Z,991.47
2018-05-10T09:55:39.962Z,991.45
2018-05-10T09:56:39.999Z,991.49
2018-05-10T09:57:40.035Z,991.45
2018-05-10T09:58:40.076Z,991.46
2018-05-10T09:59:40.135Z,991.50
2018-05-10T10:00:40.145Z,991.53
2018-05-10T10:01:40.193Z,991.51
2018-05-10T10:02:40.218Z,991.51
2018-05-10T10:03:40.316Z,991.54
2018-05-10T10:04:40.292Z,991.53
2018-05-10T10:05:40.328Z,991.50
2018-05-10T10:06:40.365Z,991.55
2018-05-10T10:07:40.399Z,991.60
2018-05-10T10:08:40.436Z,991.59
2018-05-10T10:09:40.473Z,991.63
2018-05-10T10:10:40.513Z,991.58
2018-05-10T10:11:40.608Z,991.60
2018-05-10T10:12:40.580Z,991.60
2018-05-10T10:13:40.618Z,991.59
2018-05-10T10:14:40.653Z,991.64
2018-05-10T10:15:40.736Z,991.61
2018-05-10T10:16:40.726Z,991.65
2018-05-10T10:17:40.853Z,991.67
2018-05-10T10:18:40.798Z,991.64
2018-05-10T10:19:40.834Z,991.71
2018-05-10T10:20:40.869Z,991.74
2018-05-10T10:21:40.907Z,991.72
2018-05-10T10:22:40.939Z,991.70
2018-05-10T10:23:40.976Z,991.71
2018-05-10T10:24:41.013Z,991.75
2018-05-10T10:25:41.048Z,991.74
2018-05-10T10:26:41.083Z,991.72
2018-05-10T10:27:41.119Z,991.75
2018-05-10T10:28:41.155Z,991.79
2018-05-10T10:29:41.189Z,991.72
2018-05-10T10:30:41.224Z,991.73
2018-05-10T10:31:41.261Z,991.84
2018-05-10T10:32:41.296Z,991.83
2018-05-10T10:33:41.330Z,991.81
2018-05-10T10:34:41.365Z,991.94
2018-05-10T10:35:41.401Z,991.93
2018-05-10T10:36:41.436Z,991.98
2018-05-10T10:37:41.473Z,992.07
2018-05-10T10:38:41.508Z,991.97
2018-05-10T10:39:41.541Z,991.95
2018-05-10T10:40:41.580Z,992.03
2018-05-10T10:41:41.613Z,992.11
2018-05-10T10:42:41.646Z,992.09
2018-05-10T10:43:41.682Z,992.23
2018-05-10T10:44:41.716Z,992.20
2018-05-10T10:45:41.750Z,992.17
2018-05-10T10:46:41.785Z,992.26
2018-05-10T10:47:41.820Z,992.23
2018-05-10T10:48:41.855Z,992.35
2018-05-10T10:49:41.888Z,992.35
2018-05-10T10:50:41.922Z,992.34
2018-05-10T10:51:41.958Z,992.40
2018-05-10T10:52:41.992Z,992.42
2018-05-10T10:53:42.029Z,992.44
2018-05-10T10:54:42.060Z,992.53
2018-05-10T10:55:42.094Z,992.54
2018-05-10T10:56:42.129Z,992.61
2018-05-10T10:57:42.162Z,992.54
2018-05-10T10:58:42.196Z,992.63
2018-05-10T10:59:42.229Z,992.65
2018-05-10T11:00:42.264Z,992.67
2018-05-10T11:01:42.344Z,992.67
2018-05-10T11:02:42.332Z,992.72
2018-05-10T11:03:42.365Z,992.74
2018-05-10T11:04:42.399Z,992.73
2018-05-10T11:05:42.432Z,992.78
2018-05-10T11:06:42.467Z,992.80
2018-05-10T11:07:42.501Z,992.83
2018-05-10T11:08:42.534Z,992.88
2018-05-10T11:09:42.566Z,992.87
2018-05-10T11:10:42.601Z,992.91
2018-05-10T11:11:42.634Z,992.91
2018-05-10T11:12:42.669Z,992.97
2018-05-10T11:13:42.701Z,993.03
2018-05-10T11:14:42.735Z,993.07
2018-05-10T11:15:42.772Z,993.05
2018-05-10T11:16:42.803Z,993.12
2018-05-10T11:17:42.837Z,993.13
2018-05-10T11:18:42.869Z,993.16
2018-05-10T11:19:42.904Z,993.17
2018-05-10T11:20:43.072Z,993.22
2018-05-10T11:21:42.970Z,993.28
2018-05-10T11:22:43.114Z,993.27
2018-05-10T11:23:43.039Z,993.29
2018-05-10T11:24:43.071Z,993.28
2018-05-10T11:25:43.104Z,993.32
2018-05-10T11:26:43.141Z,993.34
2018-05-10T11:27:43.217Z,993.35
2018-05-10T11:28:43.207Z,993.41
2018-05-10T11:29:43.241Z,993.42
2018-05-10T11:30:43.274Z,993.46
2018-05-10T11:31:43.308Z,993.48
2018-05-10T11:32:43.342Z,993.51
2018-05-10T11:33:43.375Z,993.60
2018-05-10T11:34:43.408Z,993.61
2018-05-10T11:35:43.443Z,993.58
2018-05-10T11:36:43.476Z,993.65
2018-05-10T11:37:43.510Z,993.71
2018-05-10T11:38:43.547Z,993.68
2018-05-10T11:39:43.579Z,993.69
2018-05-10T11:40:43.612Z,993.72
2018-05-10T11:41:43.645Z,993.73
2018-05-10T11:42:43.679Z,993.78
2018-05-10T11:43:43.713Z,993.80
2018-05-10T11:44:43.747Z,993.82
2018-05-10T11:45:43.781Z,993.85
2018-05-10T11:46:43.815Z,993.85
2018-05-10T11:47:43.848Z,993.86
2018-05-10T11:48:43.912Z,993.94
2018-05-10T11:49:43.917Z,993.91
2018-05-10T11:50:43.950Z,993.96
2018-05-10T11:51:43.985Z,994.00
2018-05-10T11:52:44.019Z,994.00
2018-05-10T11:53:44.054Z,994.02
2018-05-10T11:54:44.088Z,993.98
2018-05-10T11:55:44.123Z,994.03
2018-05-10T11:56:44.156Z,994.09
2018-05-10T11:57:44.192Z,994.14
2018-05-10T11:58:44.223Z,994.13
2018-05-10T11:59:44.258Z,994.17
2018-05-10T12:00:44.294Z,994.21
2018-05-10T12:01:44.327Z,994.20
2018-05-10T12:02:44.363Z,994.22
2018-05-10T12:03:44.395Z,994.24
2018-05-10T12:04:44.431Z,994.27
2018-05-10T12:05:44.463Z,994.32
2018-05-10T12:06:44.499Z,994.37
2018-05-10T12:07:44.534Z,994.36
2018-05-10T12:08:44.568Z,994.39
2018-05-10T12:09:44.604Z,994.41
2018-05-10T12:10:44.636Z,994.46
2018-05-10T12:11:44.670Z,994.51
2018-05-10T12:12:44.705Z,994.51
2018-05-10T12:13:44.738Z,994.60
2018-05-10T12:14:44.775Z,994.59
2018-05-10T12:15:44.808Z,994.59
2018-05-10T12:16:44.843Z,994.61
2018-05-10T12:17:44.876Z,994.69
2018-05-10T12:18:44.911Z,994.71
2018-05-10T12:19:44.945Z,994.80
2018-05-10T12:20:44.981Z,994.80
2018-05-10T12:21:45.015Z,994.78
2018-05-10T12:22:45.051Z,994.83
2018-05-10T12:23:45.085Z,994.81
2018-05-10T12:24:45.118Z,994.88
2018-05-10T12:25:45.154Z,994.90
2018-05-10T12:26:45.187Z,994.94
2018-05-10T12:27:45.222Z,994.99
2018-05-10T12:28:45.255Z,995.02